Terminal Aerodrome Forecast
Issued by NWS

Home | Current Version | Previous Version | Text Only | Print | Product List | Glossary On
Versions: 1 2 3 4 5 6 7 8 9 10 11 12 13 14 15 16 17 18
000
FTUS43 KICT 281132
TAFCNU
TAF
KCNU 281132Z 2812/2912 31007KT P6SM SCT130
     FM282300 VRB03KT P6SM BKN200
     FM290800 05009KT P6SM OVC090=

USA.gov is the U.S. government's official web portal to all federal, state and local government web resources and services.